Time;durP1;ratioP1;P1;durP2;ratioP2;P2;SDS_P1;SDS_P2;PMS_P1;PMS_P2;Temp;Humidity;BMP_temperature;BMP_pressure;BME280_temperature;BME280_humidity;BME280_pressure;Samples;Min_cycle;Max_cycle;Signal;HPM_P1;HPM_P2
2021/12/10 05:01:11;;;;;;;8.33;3.50;;;1.50;99.90;;;;;;5649836;23;20607;-79
2021/12/10 05:03:38;;;;;;;8.00;3.50;;;1.40;99.90;;;;;;4954632;28;20480;-79
2021/12/10 05:06:05;;;;;;;8.80;3.90;;;1.40;99.90;;;;;;4954531;28;20547;-79
2021/12/10 05:08:34;;;;;;;5.47;4.13;;;1.30;99.90;;;;;;4954468;28;20532;-80
2021/12/10 05:11:02;;;;;;;9.20;4.40;;;1.30;99.90;;;;;;4954528;28;20508;-79
2021/12/10 05:13:29;;;;;;;10.27;5.13;;;1.30;99.90;;;;;;4954330;28;20539;-79
2021/12/10 05:15:58;;;;;;;26.60;8.83;;;1.30;99.90;;;;;;4977462;23;20498;-77
2021/12/10 05:18:30;;;;;;;9.37;5.13;;;1.30;99.90;;;;;;4952905;29;20457;-78
2021/12/10 05:20:58;;;;;;;12.97;5.93;;;1.30;99.90;;;;;;4935053;29;20446;-77
2021/12/10 05:23:25;;;;;;;7.50;4.83;;;1.40;99.90;;;;;;4935332;29;20867;-80
2021/12/10 05:25:53;;;;;;;17.43;6.07;;;1.40;99.90;;;;;;4934878;29;20581;-79
2021/12/10 05:28:20;;;;;;;13.90;6.23;;;1.40;99.90;;;;;;4935218;29;20553;-81
2021/12/10 05:30:48;;;;;;;9.67;4.00;;;1.40;99.90;;;;;;4935657;29;20538;-78
2021/12/10 05:33:17;;;;;;;4.47;3.20;;;1.40;99.90;;;;;;4935251;29;20462;-79
2021/12/10 05:35:47;;;;;;;6.47;3.00;;;1.40;99.90;;;;;;4935099;29;20487;-79
2021/12/10 05:38:17;;;;;;;7.47;3.47;;;1.40;99.90;;;;;;4934706;29;20458;-79
2021/12/10 05:40:44;;;;;;;9.70;3.90;;;1.40;99.90;;;;;;4935554;29;20462;-80
2021/12/10 05:43:11;;;;;;;4.67;3.70;;;1.40;99.90;;;;;;4934762;29;20580;-79
2021/12/10 05:45:38;;;;;;;10.30;4.00;;;1.40;99.90;;;;;;4934717;29;20549;-78
2021/12/10 05:48:06;;;;;;;6.00;3.80;;;1.30;99.90;;;;;;4934687;29;20565;-78
2021/12/10 05:50:35;;;;;;;8.80;3.80;;;1.30;99.90;;;;;;4934437;29;20900;-79
2021/12/10 05:53:03;;;;;;;7.33;4.10;;;1.30;99.90;;;;;;4934282;29;20450;-78
2021/12/10 05:55:31;;;;;;;8.83;3.90;;;1.30;99.90;;;;;;4934220;29;21048;-78
2021/12/10 05:57:58;;;;;;;10.13;5.13;;;1.20;99.90;;;;;;4934916;29;20549;-78
2021/12/10 06:00:28;;;;;;;6.23;4.60;;;1.20;99.90;;;;;;4934354;29;21186;-77
2021/12/10 06:02:54;;;;;;;7.73;4.60;;;1.10;99.90;;;;;;4934354;29;21044;-78
2021/12/10 06:05:22;;;;;;;8.90;4.20;;;1.10;99.90;;;;;;4934118;29;20500;-80
2021/12/10 06:07:50;;;;;;;6.93;4.73;;;1.10;99.90;;;;;;4933970;29;20454;-77
2021/12/10 06:10:20;;;;;;;8.97;5.00;;;1.10;99.90;;;;;;4933864;29;20761;-78
2021/12/10 06:12:49;;;;;;;8.53;5.50;;;1.10;99.90;;;;;;4934620;29;20481;-77
2021/12/10 06:15:18;;;;;;;9.80;6.63;;;1.00;99.90;;;;;;4934215;29;20580;-79
2021/12/10 06:17:46;;;;;;;13.07;6.07;;;1.00;99.90;;;;;;4934436;29;20496;-77
2021/12/10 06:20:16;;;;;;;8.73;5.60;;;1.00;99.90;;;;;;4934124;29;20496;-78
2021/12/10 06:22:43;;;;;;;10.37;6.53;;;1.00;99.90;;;;;;4937272;29;20495;-79
2021/12/10 06:25:11;;;;;;;11.17;6.10;;;0.90;99.90;;;;;;4937954;29;20960;-79
2021/12/10 06:27:44;;;;;;;10.83;6.00;;;0.90;99.90;;;;;;4938036;29;20532;-77
2021/12/10 06:30:13;;;;;;;14.00;7.23;;;0.90;99.90;;;;;;4938019;29;20448;-78
2021/12/10 06:32:41;;;;;;;8.93;6.43;;;1.00;99.90;;;;;;4938023;29;20456;-78
2021/12/10 06:35:09;;;;;;;14.00;6.87;;;1.00;99.90;;;;;;4938012;29;20564;-77
2021/12/10 06:37:37;;;;;;;13.50;7.50;;;1.00;99.90;;;;;;4937653;29;20970;-78
2021/12/10 06:40:07;;;;;;;10.77;7.70;;;1.00;99.90;;;;;;4937719;29;20561;-76
2021/12/10 06:42:34;;;;;;;16.03;8.83;;;1.00;99.90;;;;;;4937728;29;20529;-72
2021/12/10 06:45:04;;;;;;;14.63;8.33;;;1.00;99.90;;;;;;4937216;29;20496;-74
2021/12/10 06:47:31;;;;;;;13.53;8.23;;;1.00;99.90;;;;;;4937666;29;20463;-73
2021/12/10 06:49:58;;;;;;;16.60;8.97;;;1.00;99.90;;;;;;4937137;29;20549;-73
2021/12/10 06:52:26;;;;;;;17.40;8.50;;;1.00;99.90;;;;;;4937221;29;20532;-73
2021/12/10 06:54:53;;;;;;;15.87;7.87;;;1.00;99.90;;;;;;4937147;29;20473;-73
2021/12/10 06:57:20;;;;;;;12.53;9.00;;;1.00;99.90;;;;;;4937491;29;20832;-74
2021/12/10 06:59:47;;;;;;;12.97;7.60;;;1.00;99.90;;;;;;4936946;29;20545;-73
2021/12/10 07:02:15;;;;;;;15.93;7.80;;;0.90;99.90;;;;;;4937030;29;21104;-73
2021/12/10 07:04:42;;;;;;;13.17;7.73;;;0.90;99.90;;;;;;4937229;29;20561;-73
2021/12/10 07:07:10;;;;;;;16.73;8.80;;;0.90;99.90;;;;;;4937156;29;20490;-73
2021/12/10 07:09:37;;;;;;;16.07;8.30;;;0.90;99.90;;;;;;4936930;29;20464;-73
2021/12/10 07:12:05;;;;;;;14.57;7.50;;;0.90;99.90;;;;;;4937044;29;20536;-72
2021/12/10 07:14:32;;;;;;;9.30;7.13;;;0.90;99.90;;;;;;4937078;29;20573;-72
2021/12/10 07:16:59;;;;;;;13.37;8.23;;;0.90;99.90;;;;;;4936897;29;20540;-72
2021/12/10 07:19:28;;;;;;;13.50;7.33;;;1.00;99.90;;;;;;4936618;29;20450;-73
2021/12/10 07:21:56;;;;;;;11.80;6.53;;;1.00;99.90;;;;;;4936726;29;20498;-72
2021/12/10 07:24:23;;;;;;;16.20;8.70;;;1.00;99.90;;;;;;4936525;29;20908;-72
2021/12/10 07:26:51;;;;;;;15.43;8.37;;;1.00;99.90;;;;;;4936390;29;20876;-72
2021/12/10 07:29:18;;;;;;;15.07;9.00;;;1.00;99.90;;;;;;4936573;29;20453;-72
2021/12/10 07:31:46;;;;;;;11.07;7.10;;;1.00;99.90;;;;;;4936369;29;20541;-73
2021/12/10 07:34:13;;;;;;;11.40;8.07;;;1.00;99.90;;;;;;4936559;29;20481;-73
2021/12/10 07:36:42;;;;;;;22.83;8.00;;;1.00;99.90;;;;;;4936366;29;20540;-72
2021/12/10 07:39:10;;;;;;;15.83;7.63;;;1.00;99.90;;;;;;4936121;29;20544;-73
2021/12/10 07:41:40;;;;;;;15.83;7.97;;;1.00;99.90;;;;;;4936572;29;20548;-72
2021/12/10 07:44:08;;;;;;;15.80;7.63;;;1.00;99.90;;;;;;4936484;29;20540;-72
2021/12/10 07:46:35;;;;;;;11.43;6.67;;;1.00;99.90;;;;;;4936518;29;20725;-72
2021/12/10 07:49:03;;;;;;;14.00;8.23;;;1.00;99.90;;;;;;4936069;29;21026;-72
2021/12/10 07:51:32;;;;;;;13.17;7.30;;;1.00;99.90;;;;;;4936225;29;20548;-72
2021/12/10 07:54:01;;;;;;;12.00;7.40;;;1.00;99.90;;;;;;4935790;29;20521;-72
2021/12/10 07:56:30;;;;;;;16.03;7.43;;;1.00;99.90;;;;;;4936274;29;20461;-73
2021/12/10 07:58:57;;;;;;;15.90;7.00;;;1.10;99.90;;;;;;4936188;29;20541;-72
2021/12/10 08:01:27;;;;;;;14.17;7.57;;;1.10;99.90;;;;;;4936131;29;20540;-73
2021/12/10 08:03:57;;;;;;;11.17;7.63;;;1.10;99.90;;;;;;4935921;29;20497;-73
2021/12/10 08:06:24;;;;;;;11.60;6.80;;;1.10;99.90;;;;;;4935646;29;20489;-73
2021/12/10 08:08:51;;;;;;;8.93;5.37;;;1.10;99.90;;;;;;4935876;29;20489;-73
2021/12/10 08:11:21;;;;;;;11.67;6.00;;;1.20;99.90;;;;;;4936037;29;20497;-73
2021/12/10 08:13:49;;;;;;;10.30;5.70;;;1.20;99.90;;;;;;4935991;29;20544;-73
2021/12/10 08:16:16;;;;;;;10.33;5.17;;;1.30;99.90;;;;;;4935690;29;20548;-73
2021/12/10 08:18:45;;;;;;;10.33;6.17;;;1.30;99.90;;;;;;4935558;29;20540;-73
2021/12/10 08:21:12;;;;;;;10.90;5.80;;;1.40;99.90;;;;;;4935482;29;20450;-73
2021/12/10 08:23:40;;;;;;;7.43;4.90;;;1.40;99.90;;;;;;4935744;29;20504;-73
2021/12/10 08:26:07;;;;;;;7.27;4.57;;;1.50;99.90;;;;;;4935614;29;20581;-73
2021/12/10 08:28:36;;;;;;;8.27;4.60;;;1.50;99.90;;;;;;4935463;29;20549;-74
2021/12/10 08:31:04;;;;;;;13.27;5.30;;;1.50;99.90;;;;;;4935309;29;20879;-73
2021/12/10 08:33:31;;;;;;;7.87;5.33;;;1.50;99.90;;;;;;4935210;29;20541;-73
2021/12/10 08:36:02;;;;;;;11.50;5.10;;;1.60;99.90;;;;;;4935188;29;20888;-72
2021/12/10 08:38:30;;;;;;;7.83;4.57;;;1.60;99.90;;;;;;4935452;29;20456;-73
2021/12/10 08:41:00;;;;;;;8.20;4.43;;;1.60;99.90;;;;;;4935057;29;20548;-74
2021/12/10 08:43:29;;;;;;;7.83;4.70;;;1.70;99.90;;;;;;4934884;29;20504;-73
2021/12/10 08:45:58;;;;;;;8.87;4.70;;;1.70;99.90;;;;;;4934712;29;20473;-73
2021/12/10 08:48:27;;;;;;;8.20;4.80;;;1.70;99.90;;;;;;4935355;29;20454;-73
2021/12/10 08:50:57;;;;;;;7.77;4.53;;;1.80;99.90;;;;;;4935119;29;20552;-73
2021/12/10 08:53:25;;;;;;;9.87;4.57;;;1.80;99.90;;;;;;4935081;29;20544;-73
2021/12/10 08:55:54;;;;;;;6.40;4.20;;;1.80;99.90;;;;;;4934861;29;20986;-73
2021/12/10 08:58:22;;;;;;;8.40;3.97;;;1.90;99.90;;;;;;4934779;29;20454;-73
2021/12/10 09:00:53;;;;;;;5.00;4.33;;;1.90;99.90;;;;;;4935083;29;20526;-73
2021/12/10 09:03:21;;;;;;;5.67;4.20;;;1.90;99.90;;;;;;4934887;29;20581;-73
2021/12/10 09:05:49;;;;;;;5.50;4.00;;;1.90;99.90;;;;;;4934851;29;20997;-73
2021/12/10 09:08:16;;;;;;;7.37;4.10;;;2.00;99.90;;;;;;4935028;29;21165;-73
2021/12/10 09:10:46;;;;;;;6.23;4.30;;;2.00;99.90;;;;;;4934623;29;20537;-73
2021/12/10 09:13:15;;;;;;;5.67;2.90;;;2.00;99.90;;;;;;4935186;29;20496;-73
2021/12/10 09:15:43;;;;;;;9.20;3.63;;;2.10;99.90;;;;;;4934679;29;20493;-74
2021/12/10 09:18:10;;;;;;;5.67;4.07;;;2.10;99.90;;;;;;4934700;29;20485;-73
2021/12/10 09:20:43;;;;;;;8.00;3.53;;;2.20;99.90;;;;;;4934616;29;20488;-73
2021/12/10 09:23:13;;;;;;;4.20;3.77;;;2.20;99.90;;;;;;4934580;29;20584;-73
2021/12/10 09:25:42;;;;;;;6.83;4.90;;;2.10;99.90;;;;;;4934672;29;20552;-73
2021/12/10 09:28:10;;;;;;;6.57;4.30;;;2.20;99.90;;;;;;4934925;29;20505;-73
2021/12/10 09:30:39;;;;;;;11.10;4.73;;;2.20;99.90;;;;;;4934541;29;20544;-73
2021/12/10 09:33:06;;;;;;;3.50;2.80;;;2.30;99.90;;;;;;4934580;29;21017;-73
2021/12/10 09:35:34;;;;;;;5.70;3.23;;;2.40;99.90;;;;;;4934501;29;20560;-73
2021/12/10 09:38:03;;;;;;;4.00;3.60;;;2.40;99.90;;;;;;4934284;29;20537;-73
2021/12/10 09:40:34;;;;;;;7.87;4.00;;;2.50;99.90;;;;;;4934282;29;20878;-73
2021/12/10 09:43:04;;;;;;;3.80;3.23;;;2.50;99.90;;;;;;4934730;29;21004;-73
2021/12/10 09:45:33;;;;;;;8.87;5.00;;;2.60;99.90;;;;;;4934546;29;21253;-73
2021/12/10 09:48:02;;;;;;;7.37;5.10;;;2.60;99.90;;;;;;4934622;29;20533;-73
2021/12/10 09:50:33;;;;;;;8.60;4.27;;;2.60;99.90;;;;;;4934252;29;20565;-74
2021/12/10 09:53:00;;;;;;;5.37;3.83;;;2.70;99.90;;;;;;4934897;29;20533;-73
2021/12/10 09:55:30;;;;;;;7.40;3.90;;;2.70;99.90;;;;;;4935658;29;21052;-73
2021/12/10 09:57:57;;;;;;;4.87;3.50;;;2.70;99.90;;;;;;4938495;29;20997;-73
2021/12/10 10:00:34;;;;;;;3.73;3.43;;;2.70;99.90;;;;;;4938361;29;20906;-73
2021/12/10 10:03:01;;;;;;;5.57;3.60;;;2.70;99.90;;;;;;4938204;29;20861;-73
2021/12/10 10:05:33;;;;;;;3.93;3.10;;;2.80;99.90;;;;;;4938298;29;20552;-73
2021/12/10 10:08:04;;;;;;;4.20;2.87;;;2.80;99.90;;;;;;4940805;29;20525;-74
2021/12/10 10:10:33;;;;;;;4.67;3.27;;;2.80;99.90;;;;;;4947318;29;20537;-73
2021/12/10 10:13:05;;;;;;;6.37;3.03;;;2.80;99.90;;;;;;4950925;29;20500;-73
2021/12/10 10:15:35;;;;;;;4.70;3.37;;;2.80;99.90;;;;;;4957016;29;20575;-73
2021/12/10 10:18:07;;;;;;;3.93;3.07;;;2.90;99.90;;;;;;4946967;29;20505;-73
2021/12/10 10:20:37;;;;;;;3.67;2.33;;;2.90;99.90;;;;;;4956438;29;20465;-73
2021/12/10 10:23:05;;;;;;;6.00;2.90;;;2.90;99.90;;;;;;4956885;28;20631;-73
2021/12/10 10:25:36;;;;;;;5.03;3.17;;;3.00;99.90;;;;;;4956575;29;21048;-73
2021/12/10 10:28:05;;;;;;;8.60;3.13;;;3.00;99.90;;;;;;4956967;29;20895;-74
2021/12/10 10:30:36;;;;;;;6.03;3.63;;;3.10;99.90;;;;;;4957049;29;20528;-73
2021/12/10 10:33:08;;;;;;;3.73;3.10;;;3.10;99.90;;;;;;4957097;29;20453;-73
2021/12/10 10:35:38;;;;;;;8.70;3.80;;;3.20;99.90;;;;;;4956858;29;20507;-73
2021/12/10 10:38:07;;;;;;;6.23;2.90;;;3.20;99.90;;;;;;4956695;28;20541;-73
2021/12/10 10:40:38;;;;;;;4.37;2.90;;;3.30;99.90;;;;;;4955543;29;20544;-73
2021/12/10 10:43:06;;;;;;;4.47;2.50;;;3.30;99.90;;;;;;4952708;29;20484;-74
2021/12/10 10:45:36;;;;;;;3.27;2.70;;;3.30;99.90;;;;;;4956665;29;20564;-73
2021/12/10 10:48:05;;;;;;;5.20;2.53;;;3.30;99.90;;;;;;4956610;28;20460;-73
2021/12/10 10:50:35;;;;;;;3.03;2.20;;;3.30;99.90;;;;;;4956286;29;20480;-73
2021/12/10 10:53:08;;;;;;;3.70;2.50;;;3.40;99.90;;;;;;4956313;29;20536;-73
2021/12/10 10:55:40;;;;;;;3.43;2.50;;;3.30;99.90;;;;;;4956661;29;20480;-73
2021/12/10 10:58:11;;;;;;;3.00;2.73;;;3.30;99.90;;;;;;4956595;29;20480;-72
2021/12/10 11:00:46;;;;;;;4.70;2.40;;;3.40;99.90;;;;;;4949813;29;20581;-74
2021/12/10 11:03:18;;;;;;;3.03;2.30;;;3.40;99.90;;;;;;4943245;29;20544;-72
2021/12/10 11:05:47;;;;;;;2.87;2.10;;;3.40;99.90;;;;;;4956186;29;20555;-73
2021/12/10 11:08:24;;;;;;;3.93;2.33;;;3.30;99.90;;;;;;4955591;28;20448;-73
2021/12/10 11:10:58;;;;;;;2.23;1.60;;;3.40;99.90;;;;;;4956042;28;20475;-72
2021/12/10 11:13:27;;;;;;;2.00;1.90;;;3.40;99.90;;;;;;4956308;29;20463;-73
2021/12/10 11:16:01;;;;;;;3.53;2.17;;;3.40;99.90;;;;;;4971205;23;20588;-77
2021/12/10 11:18:38;;;;;;;6.10;3.20;;;3.40;99.90;;;;;;4956660;28;20495;-77
2021/12/10 11:21:05;;;;;;;4.97;2.57;;;3.40;99.90;;;;;;4955574;28;21090;-77
2021/12/10 11:23:33;;;;;;;5.90;2.50;;;3.40;99.90;;;;;;4956468;28;20596;-77
2021/12/10 11:26:01;;;;;;;3.80;2.50;;;3.50;99.90;;;;;;4957224;29;20555;-77
2021/12/10 11:28:32;;;;;;;6.80;2.80;;;3.40;99.90;;;;;;4957332;29;20496;-78
2021/12/10 11:31:03;;;;;;;2.53;2.20;;;3.50;99.90;;;;;;4958575;28;20499;-78
2021/12/10 11:33:33;;;;;;;3.10;1.90;;;3.50;99.90;;;;;;4958525;28;20445;-78
2021/12/10 11:36:07;;;;;;;2.90;2.13;;;3.50;99.90;;;;;;4958811;28;20559;-78
2021/12/10 11:38:35;;;;;;;2.30;1.70;;;3.50;99.90;;;;;;4958305;28;20453;-77
2021/12/10 11:41:06;;;;;;;2.43;1.80;;;3.60;99.90;;;;;;4957553;28;20508;-77
2021/12/10 11:43:55;;;;;;;2.57;1.90;;;3.60;99.90;;;;;;4958071;28;20524;-77
2021/12/10 11:46:43;;;;;;;2.70;1.73;;;3.60;99.90;;;;;;4958811;28;20531;-78
2021/12/10 11:49:19;;;;;;;1.93;1.80;;;3.60;99.90;;;;;;4958854;28;20461;-79
2021/12/10 11:51:48;;;;;;;5.00;1.83;;;3.60;99.90;;;;;;4958979;28;20444;-77
2021/12/10 11:54:23;;;;;;;2.03;1.87;;;3.70;99.90;;;;;;4958766;29;20461;-79
2021/12/10 11:56:56;;;;;;;2.30;1.63;;;3.70;99.90;;;;;;4958895;29;20495;-77
2021/12/10 11:59:27;;;;;;;1.90;1.57;;;3.60;99.90;;;;;;4958344;28;20481;-77
2021/12/10 12:01:58;;;;;;;2.93;2.00;;;3.60;99.90;;;;;;4958209;28;20541;-77
2021/12/10 12:04:28;;;;;;;2.90;1.90;;;3.60;99.90;;;;;;4958448;28;20916;-78
2021/12/10 12:07:17;;;;;;;3.23;1.73;;;3.60;99.90;;;;;;4958627;28;20453;-78
2021/12/10 12:09:46;;;;;;;2.93;1.70;;;3.60;99.90;;;;;;4958144;28;21019;-78
2021/12/10 12:12:18;;;;;;;2.17;1.60;;;3.60;99.90;;;;;;4957976;28;20548;-79
2021/12/10 12:14:51;;;;;;;2.53;1.60;;;3.60;99.90;;;;;;4958803;29;20484;-78
2021/12/10 12:17:35;;;;;;;6.93;2.13;;;3.50;99.90;;;;;;4959335;28;20559;-78
2021/12/10 12:20:02;;;;;;;4.07;1.77;;;3.60;99.90;;;;;;4956828;28;20509;-77
2021/12/10 12:25:29;;;;;;;2.93;1.90;;;3.50;99.90;;;;;;4956385;29;20512;-76
2021/12/10 12:28:09;;;;;;;2.97;1.90;;;3.40;99.90;;;;;;4954589;28;20520;-76
2021/12/10 12:30:51;;;;;;;4.33;2.00;;;3.50;99.90;;;;;;4954387;28;21035;-75
2021/12/10 12:33:18;;;;;;;4.07;2.10;;;3.40;99.90;;;;;;4953727;28;20488;-76
2021/12/10 12:35:46;;;;;;;2.23;1.90;;;3.30;99.90;;;;;;4940668;29;20559;-77
2021/12/10 12:38:16;;;;;;;4.20;2.00;;;3.20;99.90;;;;;;4946029;29;20896;-76
2021/12/10 12:40:47;;;;;;;4.53;2.50;;;3.10;99.90;;;;;;4938771;29;20552;-75
2021/12/10 12:43:16;;;;;;;4.60;2.10;;;3.20;99.90;;;;;;4935416;29;20516;-76
2021/12/10 12:45:43;;;;;;;1.70;1.60;;;3.10;99.90;;;;;;4935242;29;20552;-76
2021/12/10 12:48:15;;;;;;;3.97;2.17;;;3.00;99.90;;;;;;4935659;29;20458;-76
2021/12/10 12:50:44;;;;;;;3.03;1.93;;;3.00;99.90;;;;;;4935470;29;20442;-76
2021/12/10 12:53:15;;;;;;;2.40;2.20;;;3.10;99.90;;;;;;4935304;29;20966;-76
2021/12/10 12:55:47;;;;;;;1.70;1.60;;;3.00;99.90;;;;;;4934255;29;20521;-77
2021/12/10 12:58:23;;;;;;;2.03;1.67;;;3.00;99.90;;;;;;4934085;29;20466;-76
2021/12/10 13:01:01;;;;;;;6.90;2.77;;;3.00;99.90;;;;;;4933285;29;21120;-75
2021/12/10 13:03:33;;;;;;;5.47;3.27;;;3.10;99.90;;;;;;4934123;29;20500;-77
2021/12/10 13:06:10;;;;;;;3.83;2.30;;;3.10;99.90;;;;;;4934042;29;20548;-77
2021/12/10 13:08:41;;;;;;;5.03;2.40;;;3.10;99.90;;;;;;4933642;29;20992;-75
2021/12/10 13:11:15;;;;;;;4.70;1.90;;;3.20;99.90;;;;;;4933979;29;20562;-77
2021/12/10 13:13:46;;;;;;;3.33;2.60;;;3.10;99.90;;;;;;4934013;29;20548;-75
2021/12/10 13:16:27;;;;;;;12.37;3.13;;;3.10;99.90;;;;;;4933783;29;21001;-75
2021/12/10 13:18:54;;;;;;;2.70;2.50;;;3.10;99.90;;;;;;4933163;29;20465;-75
2021/12/10 13:21:21;;;;;;;6.30;2.93;;;3.10;99.90;;;;;;4933729;29;20496;-75
2021/12/10 13:23:48;;;;;;;4.00;3.00;;;3.10;99.90;;;;;;4933710;29;20572;-76
2021/12/10 13:26:15;;;;;;;5.43;3.60;;;3.10;99.90;;;;;;4933902;29;20564;-76
2021/12/10 13:28:43;;;;;;;9.77;5.30;;;3.10;99.90;;;;;;4931971;29;20489;-75
2021/12/10 13:31:14;;;;;;;16.80;6.40;;;3.00;99.90;;;;;;4933182;29;20545;-76
2021/12/10 13:33:43;;;;;;;5.07;3.00;;;3.00;99.90;;;;;;4933537;29;20577;-76
2021/12/10 13:36:12;;;;;;;5.80;3.60;;;2.90;99.90;;;;;;4933410;29;20565;-76
2021/12/10 13:38:40;;;;;;;6.83;3.90;;;2.90;99.90;;;;;;4933410;29;20572;-76
2021/12/10 13:41:10;;;;;;;4.70;4.07;;;2.90;99.90;;;;;;4934482;29;20459;-76
2021/12/10 13:43:40;;;;;;;7.17;4.43;;;2.90;99.90;;;;;;4934397;29;21091;-77
2021/12/10 13:46:13;;;;;;;7.00;4.23;;;2.90;99.90;;;;;;4934484;29;20536;-76
2021/12/10 13:48:43;;;;;;;6.27;3.03;;;2.80;99.90;;;;;;4934317;29;20446;-76
2021/12/10 13:51:12;;;;;;;3.73;2.60;;;2.80;99.90;;;;;;4934004;29;20493;-77
2021/12/10 13:53:39;;;;;;;6.17;2.90;;;2.80;99.90;;;;;;4934708;29;20572;-76
2021/12/10 13:56:09;;;;;;;4.60;2.93;;;2.70;99.90;;;;;;4934362;29;20908;-76
2021/12/10 13:58:41;;;;;;;7.33;3.00;;;2.70;99.90;;;;;;4934372;29;20485;-75
2021/12/10 14:01:13;;;;;;;8.03;3.93;;;2.70;99.90;;;;;;4934551;29;20458;-77
2021/12/10 14:03:46;;;;;;;5.90;4.00;;;2.70;99.90;;;;;;4934633;29;20472;-76
2021/12/10 14:06:16;;;;;;;7.87;4.60;;;2.70;99.90;;;;;;4934583;29;21053;-76
2021/12/10 14:08:44;;;;;;;3.43;3.13;;;2.70;99.90;;;;;;4934463;29;20540;-75
2021/12/10 14:11:24;;;;;;;4.77;3.27;;;2.80;99.90;;;;;;4934401;29;20556;-75
2021/12/10 14:14:05;;;;;;;5.00;3.33;;;2.80;99.90;;;;;;4934590;29;20445;-76
2021/12/10 14:16:52;;;;;;;5.80;4.07;;;2.80;99.90;;;;;;4934744;29;20493;-76
2021/12/10 14:19:37;;;;;;;5.63;4.20;;;2.90;99.90;;;;;;4934117;29;20957;-77
2021/12/10 14:22:07;;;;;;;11.53;4.10;;;2.90;99.90;;;;;;4934314;29;20544;-75
2021/12/10 14:24:42;;;;;;;5.47;3.80;;;2.80;99.90;;;;;;4934459;29;20557;-76
2021/12/10 14:27:13;;;;;;;3.47;3.17;;;2.90;99.90;;;;;;4934301;29;20441;-77
2021/12/10 14:29:41;;;;;;;4.37;3.67;;;2.90;99.90;;;;;;4934313;29;20461;-74
2021/12/10 14:32:25;;;;;;;6.67;4.20;;;2.90;99.90;;;;;;4934688;29;20533;-75
2021/12/10 14:35:10;;;;;;;5.10;3.80;;;2.90;99.90;;;;;;4933543;28;20572;-74
2021/12/10 14:38:00;;;;;;;5.00;3.80;;;2.90;99.90;;;;;;4934185;29;20493;-75
2021/12/10 14:40:31;;;;;;;6.60;3.83;;;3.00;99.90;;;;;;4932414;28;20552;-75
2021/12/10 14:43:10;;;;;;;5.13;3.73;;;3.00;99.90;;;;;;4935832;29;20489;-76
2021/12/10 14:46:10;;;;;;;4.83;3.93;;;3.00;99.90;;;;;;4937357;29;21217;-74
2021/12/10 14:48:41;;;;;;;4.60;3.97;;;3.00;99.90;;;;;;4937184;28;20457;-74
2021/12/10 14:51:11;;;;;;;6.70;5.10;;;3.00;99.90;;;;;;4937521;29;20556;-74
2021/12/10 14:53:43;;;;;;;6.50;5.00;;;3.00;99.90;;;;;;4937565;29;20489;-75
2021/12/10 14:56:24;;;;;;;7.40;5.23;;;3.10;99.90;;;;;;4937087;29;20556;-76
2021/12/10 14:59:25;;;;;;;8.80;5.60;;;3.10;99.90;;;;;;4936998;29;20834;-75
2021/12/10 15:02:10;;;;;;;7.70;6.13;;;3.10;99.90;;;;;;4915951;29;20545;-74
2021/12/10 15:04:45;;;;;;;8.60;5.60;;;3.10;99.90;;;;;;4915774;29;20505;-75
2021/12/10 15:07:18;;;;;;;7.40;5.07;;;3.10;99.90;;;;;;4929239;29;20544;-74
2021/12/10 15:10:23;;;;;;;8.40;5.70;;;3.10;99.90;;;;;;4937221;29;20492;-75
2021/12/10 15:13:17;;;;;;;6.80;5.13;;;3.10;99.90;;;;;;4937205;29;20485;-75
2021/12/10 15:15:52;;;;;;;5.20;4.70;;;3.20;99.90;;;;;;4936928;29;20485;-74
2021/12/10 15:18:49;;;;;;;6.00;4.60;;;3.10;99.90;;;;;;4937058;29;20501;-74
2021/12/10 15:21:35;;;;;;;7.03;5.20;;;3.20;99.90;;;;;;4924639;28;20830;-75
2021/12/10 15:24:09;;;;;;;9.60;5.60;;;3.10;99.90;;;;;;4936900;29;20521;-75
2021/12/10 15:26:43;;;;;;;7.33;5.57;;;3.10;99.90;;;;;;4936575;29;20850;-74
2021/12/10 15:29:20;;;;;;;7.87;5.10;;;3.10;99.90;;;;;;4936591;29;20977;-75
2021/12/10 15:31:48;;;;;;;6.77;5.40;;;3.10;99.90;;;;;;4936520;29;20544;-74
2021/12/10 15:34:15;;;;;;;7.57;5.27;;;3.10;99.90;;;;;;4936482;29;20532;-74
2021/12/10 15:36:44;;;;;;;9.03;5.93;;;3.10;99.90;;;;;;4936142;29;20867;-75
2021/12/10 15:39:11;;;;;;;10.77;6.50;;;3.10;99.90;;;;;;4935872;29;20548;-74
2021/12/10 15:41:44;;;;;;;8.83;6.30;;;3.20;99.90;;;;;;4936716;29;20549;-75
2021/12/10 15:44:14;;;;;;;7.23;6.07;;;3.20;99.90;;;;;;4936382;29;20857;-74
2021/12/10 15:46:45;;;;;;;17.47;7.67;;;3.20;99.90;;;;;;4936377;29;20509;-76
2021/12/10 15:49:15;;;;;;;11.40;8.23;;;3.20;99.90;;;;;;4937193;29;20485;-78
2021/12/10 15:51:47;;;;;;;12.70;8.30;;;3.30;99.90;;;;;;4943480;29;20465;-76
2021/12/10 15:54:17;;;;;;;14.70;8.33;;;3.30;99.90;;;;;;4955159;28;20543;-76
2021/12/10 15:56:48;;;;;;;11.80;7.50;;;3.30;99.90;;;;;;4955488;28;20881;-76
2021/12/10 15:59:16;;;;;;;14.17;8.37;;;3.20;99.90;;;;;;4955042;28;20552;-76
2021/12/10 16:01:46;;;;;;;18.33;10.10;;;3.30;99.90;;;;;;4959529;28;20524;-83
2021/12/10 16:04:18;;;;;;;12.83;8.90;;;3.30;99.90;;;;;;4961840;28;20546;-83
2021/12/10 16:06:47;;;;;;;18.73;10.30;;;3.30;99.90;;;;;;4959475;28;20484;-70
2021/12/10 16:09:18;;;;;;;19.00;11.53;;;3.20;99.90;;;;;;4954989;28;20535;-70
2021/12/10 16:11:47;;;;;;;10.43;7.47;;;3.20;99.90;;;;;;4954984;28;20466;-70
2021/12/10 16:14:14;;;;;;;11.97;7.40;;;3.20;99.90;;;;;;4955010;28;20882;-69
2021/12/10 16:16:46;;;;;;;12.63;7.30;;;3.20;99.90;;;;;;4956639;28;20539;-78
2021/12/10 16:19:16;;;;;;;10.60;8.10;;;3.20;99.90;;;;;;4956805;28;20544;-78
2021/12/10 16:21:49;;;;;;;14.80;9.00;;;3.20;99.90;;;;;;4949094;28;20482;-77
2021/12/10 16:24:20;;;;;;;18.93;9.10;;;3.20;99.90;;;;;;4936396;29;20898;-77
2021/12/10 16:26:51;;;;;;;15.80;9.60;;;3.20;99.90;;;;;;4936638;29;20533;-77
2021/12/10 16:29:21;;;;;;;10.90;7.47;;;3.20;99.90;;;;;;4936043;29;20477;-77
2021/12/10 16:31:55;;;;;;;12.77;7.57;;;3.20;99.90;;;;;;4936309;29;20481;-77
2021/12/10 16:34:27;;;;;;;13.27;7.93;;;3.20;99.90;;;;;;4935951;29;20900;-77
2021/12/10 16:36:59;;;;;;;12.30;9.13;;;3.10;99.90;;;;;;4935402;29;20866;-77
2021/12/10 16:39:29;;;;;;;15.60;11.27;;;3.20;99.90;;;;;;4935435;29;20549;-77
2021/12/10 16:41:57;;;;;;;16.20;11.43;;;3.20;99.90;;;;;;4935557;29;20532;-77
2021/12/10 16:44:25;;;;;;;11.70;8.83;;;3.20;99.90;;;;;;4935327;29;20545;-76
2021/12/10 16:46:58;;;;;;;19.03;9.60;;;3.20;99.90;;;;;;4935863;29;20537;-77
2021/12/10 16:49:27;;;;;;;14.90;11.07;;;3.30;99.90;;;;;;4935106;29;20486;-76
2021/12/10 16:52:00;;;;;;;14.87;12.40;;;3.20;99.90;;;;;;4945208;28;20832;-76
2021/12/10 16:54:35;;;;;;;14.47;10.93;;;3.30;99.90;;;;;;4955355;28;20547;-77
2021/12/10 16:57:07;;;;;;;16.93;11.97;;;3.30;99.90;;;;;;4955774;28;20502;-77
2021/12/10 16:59:34;;;;;;;16.43;12.70;;;3.40;99.90;;;;;;4955666;28;20488;-77
2021/12/10 17:02:04;;;;;;;19.00;11.57;;;3.30;99.90;;;;;;4955418;28;20445;-76
2021/12/10 17:04:33;;;;;;;19.40;12.80;;;3.40;99.90;;;;;;4954350;28;20515;-76
2021/12/10 17:07:05;;;;;;;25.40;14.40;;;3.40;99.90;;;;;;4954270;28;20532;-76
2021/12/10 17:09:33;;;;;;;21.87;13.37;;;3.40;99.90;;;;;;4954006;28;20459;-76
2021/12/10 17:12:05;;;;;;;18.60;12.17;;;3.40;99.90;;;;;;4954226;28;20540;-75
2021/12/10 17:14:38;;;;;;;13.20;11.40;;;3.40;99.90;;;;;;4953752;28;20559;-76
2021/12/10 17:17:07;;;;;;;17.60;13.13;;;3.40;99.90;;;;;;4954614;28;20556;-77
2021/12/10 17:19:38;;;;;;;18.10;11.73;;;3.50;99.90;;;;;;4954011;28;20496;-77
2021/12/10 17:22:12;;;;;;;20.80;11.77;;;3.40;99.90;;;;;;4954068;28;20461;-77
2021/12/10 17:24:41;;;;;;;12.00;8.50;;;3.40;99.90;;;;;;4953724;28;20567;-77
2021/12/10 17:27:13;;;;;;;12.57;8.53;;;3.40;99.90;;;;;;4954156;28;20645;-77
2021/12/10 17:29:42;;;;;;;11.70;8.63;;;3.40;99.90;;;;;;4953879;28;20547;-77
2021/12/10 17:32:11;;;;;;;11.37;8.87;;;3.40;99.90;;;;;;4954053;28;20467;-76
2021/12/10 17:34:43;;;;;;;16.10;9.60;;;3.40;99.90;;;;;;4953682;28;20918;-76
2021/12/10 17:37:16;;;;;;;11.30;7.90;;;3.40;99.90;;;;;;4953872;28;21040;-76
2021/12/10 17:39:47;;;;;;;10.30;8.60;;;3.40;99.90;;;;;;4953650;28;20532;-77
2021/12/10 17:42:18;;;;;;;13.27;8.50;;;3.40;99.90;;;;;;4954377;28;20548;-76
2021/12/10 17:44:48;;;;;;;12.73;7.47;;;3.50;99.90;;;;;;4953557;28;20503;-77
2021/12/10 17:47:19;;;;;;;15.87;8.70;;;3.50;99.90;;;;;;4953913;28;20983;-74
2021/12/10 17:49:49;;;;;;;15.97;8.80;;;3.50;99.90;;;;;;4952206;28;20488;-74
2021/12/10 17:52:21;;;;;;;13.23;9.30;;;3.40;99.90;;;;;;4952246;28;20463;-75
2021/12/10 17:54:51;;;;;;;23.20;10.33;;;3.40;99.90;;;;;;4953003;28;21057;-74
2021/12/10 17:57:22;;;;;;;13.90;9.17;;;3.40;99.90;;;;;;4952982;28;20480;-75
2021/12/10 17:59:50;;;;;;;12.60;8.67;;;3.40;99.90;;;;;;4952604;28;20445;-76
2021/12/10 18:02:22;;;;;;;10.30;8.30;;;3.40;99.90;;;;;;4952699;28;20452;-77
2021/12/10 18:04:51;;;;;;;11.40;9.20;;;3.40;99.90;;;;;;4953284;28;20484;-77
2021/12/10 18:07:22;;;;;;;15.90;11.00;;;3.40;99.90;;;;;;4953695;28;20544;-77
2021/12/10 18:09:52;;;;;;;14.47;9.37;;;3.40;99.90;;;;;;4947730;28;20549;-76
2021/12/10 18:12:23;;;;;;;13.37;9.73;;;3.40;99.90;;;;;;4943853;28;20528;-77
2021/12/10 18:14:55;;;;;;;9.70;8.50;;;3.50;99.90;;;;;;4952725;28;20960;-76